Форум клана ЧПУшников

Информация о пользователе

Привет, Гость! Войдите или зарегистрируйтесь.


Вы здесь » Форум клана ЧПУшников » Лазерные станки


Лазерные станки

Тем 1 страница 80 из 539

Тема Ответов Просмотров Последнее сообщение
583 12365 03-10-2019 20:10:45  Jek44
874 62911 01-09-2019 14:46:39  alexlazebnik
166 7366 14-03-2019 15:48:56  Vegas 52
9 106 11-10-2019 11:13:41  shatrovmaxim
24 306 01-10-2019 16:22:23  ilya37rus
332 16461 01-10-2019 15:18:13  ilya37rus
206 9367 25-09-2019 16:37:52  adres
4 68 23-09-2019 16:55:57  adres
16 312 21-09-2019 13:50:03  ydav75
44 1157 21-09-2019 13:15:26  ydav75
10 278 21-09-2019 11:07:05  Борис Мишагин
2 55 19-09-2019 13:00:43  chirik
341 30929 19-09-2019 11:34:20  ilya37rus
221 21204 19-09-2019 11:13:05  IFAlice
8 275 17-09-2019 08:02:32  shatrovmaxim
16 556 09-09-2019 18:55:47  tonks
20 144 31-08-2019 11:26:41  valeribeglaryan
1 77 30-08-2019 01:45:31  ilya37rus
4 189 26-08-2019 21:46:47  Dandarrio
197 7058 26-08-2019 21:33:53  Dandarrio
7 148 26-08-2019 08:52:34  nevborisov26
12 251 19-08-2019 06:59:33  Kinetic
2 160 16-08-2019 15:19:26  ilya37rus
24 На ходу пропал луч.  Анатолий w38
3 91 16-08-2019 10:46:54  Andy52280
7 121 16-08-2019 06:23:10  serge78ss
1 84 14-08-2019 20:26:11  ilya37rus
2 114 13-08-2019 07:21:14  RD3
1 57 01-08-2019 17:14:40  Sanana
14 302 25-07-2019 18:15:23  jane
24 310 25-07-2019 10:26:34  Kuz
16 319 24-07-2019 12:28:25  Alex76
10 209 19-07-2019 12:54:43  Sanana
1 139 18-07-2019 22:39:57  Kirian
2 202 16-07-2019 16:16:36  sgluk
35 Мой Veno 503  mikhAN
96 2668 10-07-2019 17:59:24  mikhAN
3 110 05-07-2019 13:03:01  Andy52280
3 230 05-07-2019 10:30:50  qump
132 7573 03-07-2019 19:31:39  igordad
19 436 24-06-2019 13:29:16  igordad
12 264 06-06-2019 23:25:05  АндрейKosiv
2 172 03-06-2019 16:48:51  Andy52280
1 170 27-05-2019 02:42:37  ИгорьМ
1 102 26-05-2019 04:10:06  Bassser
9 241 25-05-2019 17:56:20  Dolflex
171 5241 24-05-2019 19:44:19  musicman3
283 10724 14-05-2019 07:57:39  esb
4 112 13-05-2019 10:56:34  m911yp
7 242 07-05-2019 13:02:02  Kuz
2 182 07-05-2019 12:59:07  Kuz
0 74 03-05-2019 09:57:22  Op023
12 319 02-05-2019 16:59:51  Fredi1903
236 22700 30-04-2019 12:06:13  miamifan91
53 контроллер TL-403  Алексей Степанов
5 134 29-04-2019 18:38:22  Сергеич
148 5140 16-04-2019 17:19:23  WandereR
4 194 10-04-2019 10:19:31  Kuz
37 1897 09-04-2019 22:53:04  musicman3
4 123 06-04-2019 10:49:10  Andy52280
121 4370 05-04-2019 09:04:27  esb
59 AutoLaser  yurk1151
35 1519 02-04-2019 21:52:42  scanwloker
0 117 30-03-2019 00:39:47  Vivan
6 203 24-03-2019 14:50:34  ptolik
56 2744 21-03-2019 15:06:08  vasa29
3 98 21-03-2019 02:52:19  ИгорьМ
23 1037 18-03-2019 10:05:01  Vegas 52
14 463 15-03-2019 11:08:09  Vegas 52
7 360 15-03-2019 10:55:38  Kuz
262 7634 07-03-2019 09:10:05  ilya37rus
14 317 06-03-2019 14:51:28  Kuz
10 249 06-03-2019 14:11:11  D1mitriy
1 112 28-02-2019 14:23:17  Andy52280
16 394 27-02-2019 18:17:37  esb
463 19432 27-02-2019 12:46:26  iamkuchka
0 159 24-02-2019 11:56:21  Mix78
492 14936 22-02-2019 11:25:53  Зависть
2 109 16-02-2019 13:58:18  DmFam
76 Замена 304-му  WandereR
9 185 14-02-2019 12:54:26  WandereR
2 190 05-02-2019 17:37:34  vasa29
78 Нужна помощь новичку.  Роман Боронин
1 144 05-02-2019 10:40:55  shatrovmaxim
98 3679 03-02-2019 09:59:19  vasa29
80 Trocen vs RUIDA  ptolik
7 329 03-02-2019 00:30:22  liberty3000

Вы здесь » Форум клана ЧПУшников » Лазерные станки